sensor_id;sensor_type;location;lat;lon;timestamp;pressure;altitude;pressure_sealevel;temperature;humidity
12077;BME280;12420;42.676;23.262;2022-08-19T00:00:30;94364.56;;;24.73;66.88
12077;BME280;12420;42.676;23.262;2022-08-19T00:02:57;94363.13;;;24.72;67.06
12077;BME280;12420;42.676;23.262;2022-08-19T00:05:24;94349.50;;;24.54;66.98
12077;BME280;12420;42.676;23.262;2022-08-19T00:07:51;94357.78;;;24.50;67.57
12077;BME280;12420;42.676;23.262;2022-08-19T00:10:19;94356.63;;;24.55;67.39
12077;BME280;12420;42.676;23.262;2022-08-19T00:12:47;94360.81;;;24.54;67.30
12077;BME280;12420;42.676;23.262;2022-08-19T00:15:17;94346.31;;;24.34;67.45
12077;BME280;12420;42.676;23.262;2022-08-19T00:17:45;94370.84;;;24.43;68.17
12077;BME280;12420;42.676;23.262;2022-08-19T00:20:13;94373.75;;;24.32;68.38
12077;BME280;12420;42.676;23.262;2022-08-19T00:22:43;94388.00;;;24.34;68.64
12077;BME280;12420;42.676;23.262;2022-08-19T00:25:10;94372.00;;;24.38;70.05
12077;BME280;12420;42.676;23.262;2022-08-19T00:27:39;94381.91;;;24.25;71.07
12077;BME280;12420;42.676;23.262;2022-08-19T00:30:07;94372.78;;;24.13;71.25
12077;BME280;12420;42.676;23.262;2022-08-19T00:32:34;94362.38;;;24.04;72.16
12077;BME280;12420;42.676;23.262;2022-08-19T00:35:03;94373.41;;;24.12;72.84
12077;BME280;12420;42.676;23.262;2022-08-19T00:37:30;94373.50;;;24.00;73.06
12077;BME280;12420;42.676;23.262;2022-08-19T00:40:00;94361.41;;;23.86;73.66
12077;BME280;12420;42.676;23.262;2022-08-19T00:42:28;94369.88;;;23.86;74.39
12077;BME280;12420;42.676;23.262;2022-08-19T00:44:56;94363.06;;;23.77;74.62
12077;BME280;12420;42.676;23.262;2022-08-19T00:47:23;94354.50;;;23.63;74.10
12077;BME280;12420;42.676;23.262;2022-08-19T00:49:52;94363.78;;;23.77;74.95
12077;BME280;12420;42.676;23.262;2022-08-19T00:52:22;94361.81;;;23.80;74.58
12077;BME280;12420;42.676;23.262;2022-08-19T00:54:54;94356.78;;;23.78;75.26
12077;BME280;12420;42.676;23.262;2022-08-19T00:57:26;94362.47;;;23.67;75.13
12077;BME280;12420;42.676;23.262;2022-08-19T00:59:57;94357.44;;;23.65;74.58
12077;BME280;12420;42.676;23.262;2022-08-19T01:02:26;94339.09;;;23.52;74.13
12077;BME280;12420;42.676;23.262;2022-08-19T01:04:53;94356.69;;;23.76;75.52
12077;BME280;12420;42.676;23.262;2022-08-19T01:07:20;94358.66;;;23.74;75.52
12077;BME280;12420;42.676;23.262;2022-08-19T01:09:47;94353.47;;;23.70;74.73
12077;BME280;12420;42.676;23.262;2022-08-19T01:12:16;94365.16;;;23.76;74.79
12077;BME280;12420;42.676;23.262;2022-08-19T01:14:44;94361.00;;;23.66;75.05
12077;BME280;12420;42.676;23.262;2022-08-19T01:17:13;94361.97;;;23.70;74.83
12077;BME280;12420;42.676;23.262;2022-08-19T01:19:42;94355.50;;;23.56;75.04
12077;BME280;12420;42.676;23.262;2022-08-19T01:22:12;94360.38;;;23.67;76.55
12077;BME280;12420;42.676;23.262;2022-08-19T01:24:42;94359.09;;;23.56;76.54
12077;BME280;12420;42.676;23.262;2022-08-19T01:27:09;94349.22;;;23.44;77.02
12077;BME280;12420;42.676;23.262;2022-08-19T01:29:39;94354.84;;;23.44;77.85
12077;BME280;12420;42.676;23.262;2022-08-19T01:32:09;94359.75;;;23.43;79.02
12077;BME280;12420;42.676;23.262;2022-08-19T01:34:37;94363.94;;;23.42;78.00
12077;BME280;12420;42.676;23.262;2022-08-19T01:37:06;94365.53;;;23.45;77.22
12077;BME280;12420;42.676;23.262;2022-08-19T01:39:37;94362.69;;;23.45;78.12
12077;BME280;12420;42.676;23.262;2022-08-19T01:42:06;94365.41;;;23.43;78.92
12077;BME280;12420;42.676;23.262;2022-08-19T01:44:35;94359.56;;;23.27;79.11
12077;BME280;12420;42.676;23.262;2022-08-19T01:47:03;94363.75;;;23.26;78.71
12077;BME280;12420;42.676;23.262;2022-08-19T01:49:30;94362.19;;;23.23;78.28
12077;BME280;12420;42.676;23.262;2022-08-19T01:51:59;94372.09;;;23.36;78.76
12077;BME280;12420;42.676;23.262;2022-08-19T01:54:26;94364.09;;;23.32;79.97
12077;BME280;12420;42.676;23.262;2022-08-19T01:56:57;94356.19;;;23.17;80.94
12077;BME280;12420;42.676;23.262;2022-08-19T01:59:27;94361.88;;;23.05;81.48
12077;BME280;12420;42.676;23.262;2022-08-19T02:01:57;94372.78;;;22.99;82.47
12077;BME280;12420;42.676;23.262;2022-08-19T02:04:23;94367.88;;;23.00;83.02
12077;BME280;12420;42.676;23.262;2022-08-19T02:06:50;94370.47;;;22.95;83.67
12077;BME280;12420;42.676;23.262;2022-08-19T02:09:17;94337.00;;;22.78;84.11
12077;BME280;12420;42.676;23.262;2022-08-19T02:11:44;94372.06;;;22.99;83.65
12077;BME280;12420;42.676;23.262;2022-08-19T02:14:11;94367.38;;;22.91;84.12
12077;BME280;12420;42.676;23.262;2022-08-19T02:16:39;94370.00;;;22.87;84.81
12077;BME280;12420;42.676;23.262;2022-08-19T02:19:06;94363.13;;;22.79;85.21
12077;BME280;12420;42.676;23.262;2022-08-19T02:21:33;94364.38;;;22.64;86.11
12077;BME280;12420;42.676;23.262;2022-08-19T02:24:00;94351.75;;;22.41;87.17
12077;BME280;12420;42.676;23.262;2022-08-19T02:26:27;94368.06;;;22.43;88.17
12077;BME280;12420;42.676;23.262;2022-08-19T02:28:55;94364.16;;;22.48;88.80
12077;BME280;12420;42.676;23.262;2022-08-19T02:31:24;94361.31;;;22.36;89.49
12077;BME280;12420;42.676;23.262;2022-08-19T02:33:52;94370.66;;;22.27;90.06
12077;BME280;12420;42.676;23.262;2022-08-19T02:36:20;94365.88;;;22.29;90.01
12077;BME280;12420;42.676;23.262;2022-08-19T02:38:47;94365.63;;;22.25;90.68
12077;BME280;12420;42.676;23.262;2022-08-19T02:41:18;94365.59;;;22.14;91.03
12077;BME280;12420;42.676;23.262;2022-08-19T02:43:45;94364.75;;;22.11;90.68
12077;BME280;12420;42.676;23.262;2022-08-19T02:46:14;94362.88;;;22.16;91.74
12077;BME280;12420;42.676;23.262;2022-08-19T02:48:43;94370.25;;;22.21;91.40
12077;BME280;12420;42.676;23.262;2022-08-19T02:51:18;94375.31;;;22.22;91.67
12077;BME280;12420;42.676;23.262;2022-08-19T02:53:49;94373.09;;;22.21;91.77
12077;BME280;12420;42.676;23.262;2022-08-19T02:56:18;94373.94;;;22.11;91.93
12077;BME280;12420;42.676;23.262;2022-08-19T02:58:45;94381.41;;;22.19;92.17
12077;BME280;12420;42.676;23.262;2022-08-19T03:01:19;94384.22;;;22.19;90.79
12077;BME280;12420;42.676;23.262;2022-08-19T03:03:48;94374.44;;;22.20;91.15
12077;BME280;12420;42.676;23.262;2022-08-19T03:06:17;94378.72;;;22.21;91.02
12077;BME280;12420;42.676;23.262;2022-08-19T03:08:45;94383.75;;;22.22;91.08
12077;BME280;12420;42.676;23.262;2022-08-19T03:11:14;94379.06;;;22.15;91.10
12077;BME280;12420;42.676;23.262;2022-08-19T03:13:41;94370.38;;;22.11;91.33
12077;BME280;12420;42.676;23.262;2022-08-19T03:16:09;94371.22;;;22.02;91.15
12077;BME280;12420;42.676;23.262;2022-08-19T03:18:37;94376.63;;;22.09;90.65
12077;BME280;12420;42.676;23.262;2022-08-19T03:21:04;94373.66;;;22.07;90.68
12077;BME280;12420;42.676;23.262;2022-08-19T03:23:35;94382.00;;;22.05;90.60
12077;BME280;12420;42.676;23.262;2022-08-19T03:26:04;94372.56;;;22.01;90.46
12077;BME280;12420;42.676;23.262;2022-08-19T03:28:32;94380.25;;;21.88;91.48
12077;BME280;12420;42.676;23.262;2022-08-19T03:31:01;94375.56;;;21.70;91.61
12077;BME280;12420;42.676;23.262;2022-08-19T03:33:30;94371.38;;;21.59;92.17
12077;BME280;12420;42.676;23.262;2022-08-19T03:36:01;94370.38;;;21.54;91.22
12077;BME280;12420;42.676;23.262;2022-08-19T03:38:29;94362.88;;;21.47;91.31
12077;BME280;12420;42.676;23.262;2022-08-19T03:41:02;94370.13;;;21.50;91.08
12077;BME280;12420;42.676;23.262;2022-08-19T03:43:29;94357.38;;;21.49;92.00
12077;BME280;12420;42.676;23.262;2022-08-19T03:46:00;94380.19;;;21.65;93.09
12077;BME280;12420;42.676;23.262;2022-08-19T03:48:28;94393.94;;;21.71;92.57
12077;BME280;12420;42.676;23.262;2022-08-19T03:50:56;94391.50;;;21.77;90.19
12077;BME280;12420;42.676;23.262;2022-08-19T03:53:24;94395.69;;;21.87;91.99
12077;BME280;12420;42.676;23.262;2022-08-19T03:55:51;94385.59;;;21.73;91.26
12077;BME280;12420;42.676;23.262;2022-08-19T03:58:20;94396.53;;;21.90;90.29
12077;BME280;12420;42.676;23.262;2022-08-19T04:00:47;94341.13;;;21.59;90.74
12077;BME280;12420;42.676;23.262;2022-08-19T04:03:13;94405.63;;;22.00;91.36
12077;BME280;12420;42.676;23.262;2022-08-19T04:05:40;94410.75;;;21.92;90.60
12077;BME280;12420;42.676;23.262;2022-08-19T04:08:07;94393.22;;;21.82;89.57
12077;BME280;12420;42.676;23.262;2022-08-19T04:10:35;94421.22;;;22.01;89.30
12077;BME280;12420;42.676;23.262;2022-08-19T04:13:04;94399.41;;;22.02;89.64
12077;BME280;12420;42.676;23.262;2022-08-19T04:15:33;94416.13;;;22.21;89.34
12077;BME280;12420;42.676;23.262;2022-08-19T04:18:07;94408.53;;;22.24;89.71
12077;BME280;12420;42.676;23.262;2022-08-19T04:20:40;94420.03;;;22.28;90.06
12077;BME280;12420;42.676;23.262;2022-08-19T04:23:07;94418.72;;;22.29;90.55
12077;BME280;12420;42.676;23.262;2022-08-19T04:25:36;94400.88;;;22.15;90.21
12077;BME280;12420;42.676;23.262;2022-08-19T04:28:07;94424.72;;;22.35;89.74
12077;BME280;12420;42.676;23.262;2022-08-19T04:30:41;94421.16;;;22.46;88.48
12077;BME280;12420;42.676;23.262;2022-08-19T04:33:08;94422.53;;;22.57;88.59
12077;BME280;12420;42.676;23.262;2022-08-19T04:35:37;94425.44;;;22.71;87.63
12077;BME280;12420;42.676;23.262;2022-08-19T04:38:04;94427.63;;;22.84;87.89
12077;BME280;12420;42.676;23.262;2022-08-19T04:40:32;94417.06;;;22.96;86.64
12077;BME280;12420;42.676;23.262;2022-08-19T04:43:16;94422.47;;;23.16;86.11
12077;BME280;12420;42.676;23.262;2022-08-19T04:45:44;94404.81;;;23.04;84.56
12077;BME280;12420;42.676;23.262;2022-08-19T04:48:12;94419.88;;;23.20;81.34
12077;BME280;12420;42.676;23.262;2022-08-19T04:50:41;94425.63;;;23.34;80.55
12077;BME280;12420;42.676;23.262;2022-08-19T04:53:08;94426.69;;;23.40;81.40
12077;BME280;12420;42.676;23.262;2022-08-19T04:55:39;94419.91;;;23.46;78.49
12077;BME280;12420;42.676;23.262;2022-08-19T04:58:06;94418.00;;;23.36;78.46
12077;BME280;12420;42.676;23.262;2022-08-19T05:00:33;94430.34;;;23.43;78.58
12077;BME280;12420;42.676;23.262;2022-08-19T05:03:04;94434.63;;;23.56;80.18
12077;BME280;12420;42.676;23.262;2022-08-19T05:05:40;94425.38;;;23.67;79.69
12077;BME280;12420;42.676;23.262;2022-08-19T05:08:07;94424.06;;;23.56;78.99
12077;BME280;12420;42.676;23.262;2022-08-19T05:10:41;94433.53;;;23.87;77.68
12077;BME280;12420;42.676;23.262;2022-08-19T05:13:08;94436.00;;;24.06;78.27
12077;BME280;12420;42.676;23.262;2022-08-19T05:15:36;94438.34;;;24.10;78.30
12077;BME280;12420;42.676;23.262;2022-08-19T05:18:04;94388.09;;;23.82;78.46
12077;BME280;12420;42.676;23.262;2022-08-19T05:20:48;94433.13;;;24.18;78.85
12077;BME280;12420;42.676;23.262;2022-08-19T05:23:33;94437.78;;;24.39;76.42
12077;BME280;12420;42.676;23.262;2022-08-19T05:26:00;94437.94;;;24.55;76.48
12077;BME280;12420;42.676;23.262;2022-08-19T05:28:26;94428.81;;;24.56;74.97
12077;BME280;12420;42.676;23.262;2022-08-19T05:30:55;94432.94;;;24.81;74.96
12077;BME280;12420;42.676;23.262;2022-08-19T05:33:23;94439.13;;;25.05;71.30
12077;BME280;12420;42.676;23.262;2022-08-19T05:35:50;94441.94;;;25.19;70.23
12077;BME280;12420;42.676;23.262;2022-08-19T05:38:19;94434.81;;;25.18;70.23
12077;BME280;12420;42.676;23.262;2022-08-19T05:40:46;94406.81;;;25.10;70.92
12077;BME280;12420;42.676;23.262;2022-08-19T05:43:15;94437.00;;;25.33;70.25
12077;BME280;12420;42.676;23.262;2022-08-19T05:45:43;94434.56;;;25.41;72.00
12077;BME280;12420;42.676;23.262;2022-08-19T05:48:10;94436.06;;;25.42;70.35
12077;BME280;12420;42.676;23.262;2022-08-19T05:50:39;94438.75;;;25.54;71.03
12077;BME280;12420;42.676;23.262;2022-08-19T05:53:07;94423.31;;;25.57;69.96
12077;BME280;12420;42.676;23.262;2022-08-19T05:55:35;94446.22;;;25.77;68.24
12077;BME280;12420;42.676;23.262;2022-08-19T05:58:03;94439.66;;;25.72;68.09
12077;BME280;12420;42.676;23.262;2022-08-19T06:00:34;94429.66;;;25.85;68.12
12077;BME280;12420;42.676;23.262;2022-08-19T06:03:01;94450.00;;;25.95;66.92
12077;BME280;12420;42.676;23.262;2022-08-19T06:05:28;94425.22;;;25.82;67.43
12077;BME280;12420;42.676;23.262;2022-08-19T06:07:57;94424.31;;;25.77;66.51
12077;BME280;12420;42.676;23.262;2022-08-19T06:10:25;94444.06;;;25.75;67.44
12077;BME280;12420;42.676;23.262;2022-08-19T06:12:52;94454.38;;;25.98;67.63
12077;BME280;12420;42.676;23.262;2022-08-19T06:15:21;94450.19;;;25.99;66.89
12077;BME280;12420;42.676;23.262;2022-08-19T06:17:50;94454.31;;;26.12;66.68
12077;BME280;12420;42.676;23.262;2022-08-19T06:20:17;94454.56;;;26.03;66.29
12077;BME280;12420;42.676;23.262;2022-08-19T06:22:46;94449.94;;;26.25;64.85
12077;BME280;12420;42.676;23.262;2022-08-19T06:25:15;94454.09;;;26.38;65.99
12077;BME280;12420;42.676;23.262;2022-08-19T06:27:42;94420.13;;;26.24;65.07
12077;BME280;12420;42.676;23.262;2022-08-19T06:30:10;94450.81;;;26.44;67.08
12077;BME280;12420;42.676;23.262;2022-08-19T06:32:37;94435.34;;;26.47;65.06
12077;BME280;12420;42.676;23.262;2022-08-19T06:35:05;94441.16;;;26.65;64.71
12077;BME280;12420;42.676;23.262;2022-08-19T06:37:32;94456.06;;;26.81;63.49
12077;BME280;12420;42.676;23.262;2022-08-19T06:39:59;94418.44;;;26.65;63.62
12077;BME280;12420;42.676;23.262;2022-08-19T06:42:28;94457.16;;;27.05;64.62
12077;BME280;12420;42.676;23.262;2022-08-19T06:44:57;94450.25;;;27.11;63.22
12077;BME280;12420;42.676;23.262;2022-08-19T06:47:24;94455.94;;;27.11;63.19
12077;BME280;12420;42.676;23.262;2022-08-19T06:49:54;94422.72;;;26.97;62.72
12077;BME280;12420;42.676;23.262;2022-08-19T06:52:26;94448.44;;;27.17;62.84
12077;BME280;12420;42.676;23.262;2022-08-19T06:54:53;94458.28;;;27.48;61.88
12077;BME280;12420;42.676;23.262;2022-08-19T06:57:21;94453.19;;;27.28;60.90
12077;BME280;12420;42.676;23.262;2022-08-19T06:59:49;94454.81;;;27.34;60.79
12077;BME280;12420;42.676;23.262;2022-08-19T07:02:16;94466.81;;;27.48;60.26
12077;BME280;12420;42.676;23.262;2022-08-19T07:04:43;94452.50;;;27.46;60.56
12077;BME280;12420;42.676;23.262;2022-08-19T07:07:12;94460.41;;;27.65;60.41
12077;BME280;12420;42.676;23.262;2022-08-19T07:09:42;94473.75;;;27.79;59.84
12077;BME280;12420;42.676;23.262;2022-08-19T07:12:11;94470.97;;;27.81;59.95
12077;BME280;12420;42.676;23.262;2022-08-19T07:14:38;94466.06;;;27.99;59.22
12077;BME280;12420;42.676;23.262;2022-08-19T07:17:08;94475.16;;;27.96;58.10
12077;BME280;12420;42.676;23.262;2022-08-19T07:19:35;94473.44;;;27.88;58.65
12077;BME280;12420;42.676;23.262;2022-08-19T07:22:04;94478.75;;;27.62;59.41
12077;BME280;12420;42.676;23.262;2022-08-19T07:24:31;94466.06;;;27.81;59.62
12077;BME280;12420;42.676;23.262;2022-08-19T07:27:03;94462.38;;;27.79;59.30
12077;BME280;12420;42.676;23.262;2022-08-19T07:29:32;94454.78;;;28.01;58.26
12077;BME280;12420;42.676;23.262;2022-08-19T07:31:59;94436.56;;;28.08;57.85
12077;BME280;12420;42.676;23.262;2022-08-19T07:34:29;94424.19;;;28.20;55.91
12077;BME280;12420;42.676;23.262;2022-08-19T07:36:59;94466.63;;;28.49;56.78
12077;BME280;12420;42.676;23.262;2022-08-19T07:39:28;94435.25;;;28.47;55.69
12077;BME280;12420;42.676;23.262;2022-08-19T07:41:57;94454.09;;;28.56;54.40
12077;BME280;12420;42.676;23.262;2022-08-19T07:44:24;94465.34;;;28.72;54.96
12077;BME280;12420;42.676;23.262;2022-08-19T07:46:53;94472.00;;;28.79;53.34
12077;BME280;12420;42.676;23.262;2022-08-19T07:49:22;94456.59;;;28.86;54.49
12077;BME280;12420;42.676;23.262;2022-08-19T07:51:53;94470.22;;;28.88;54.05
12077;BME280;12420;42.676;23.262;2022-08-19T07:54:22;94471.16;;;28.94;52.89
12077;BME280;12420;42.676;23.262;2022-08-19T07:56:50;94465.19;;;29.06;53.94
12077;BME280;12420;42.676;23.262;2022-08-19T07:59:18;94454.88;;;29.17;52.36
12077;BME280;12420;42.676;23.262;2022-08-19T08:01:46;94437.50;;;29.09;51.52
12077;BME280;12420;42.676;23.262;2022-08-19T08:04:13;94457.50;;;29.31;50.82
12077;BME280;12420;42.676;23.262;2022-08-19T08:06:59;94462.97;;;29.45;50.68
12077;BME280;12420;42.676;23.262;2022-08-19T08:09:44;94465.91;;;29.47;50.80
12077;BME280;12420;42.676;23.262;2022-08-19T08:12:14;94446.53;;;29.43;50.39
12077;BME280;12420;42.676;23.262;2022-08-19T08:14:44;94457.81;;;29.61;50.08
12077;BME280;12420;42.676;23.262;2022-08-19T08:17:12;94458.75;;;29.88;50.71
12077;BME280;12420;42.676;23.262;2022-08-19T08:19:39;94451.88;;;29.97;48.73
12077;BME280;12420;42.676;23.262;2022-08-19T08:22:09;94452.91;;;30.05;47.90
12077;BME280;12420;42.676;23.262;2022-08-19T08:25:00;94452.34;;;30.11;47.87
12077;BME280;12420;42.676;23.262;2022-08-19T08:27:27;94455.53;;;30.21;45.81
12077;BME280;12420;42.676;23.262;2022-08-19T08:29:56;94445.66;;;30.24;44.71
12077;BME280;12420;42.676;23.262;2022-08-19T08:32:23;94430.03;;;30.27;44.42
12077;BME280;12420;42.676;23.262;2022-08-19T08:34:49;94447.78;;;30.48;45.49
12077;BME280;12420;42.676;23.262;2022-08-19T08:37:17;94451.63;;;30.57;46.02
12077;BME280;12420;42.676;23.262;2022-08-19T08:39:44;94431.78;;;30.61;45.18
12077;BME280;12420;42.676;23.262;2022-08-19T08:42:16;94436.69;;;30.82;43.36
12077;BME280;12420;42.676;23.262;2022-08-19T08:44:51;94430.53;;;30.92;42.48
12077;BME280;12420;42.676;23.262;2022-08-19T08:47:21;94447.56;;;31.14;42.18
12077;BME280;12420;42.676;23.262;2022-08-19T08:49:53;94425.28;;;31.08;42.62
12077;BME280;12420;42.676;23.262;2022-08-19T08:52:26;94427.06;;;31.22;39.12
12077;BME280;12420;42.676;23.262;2022-08-19T08:54:57;94445.53;;;31.43;39.71
12077;BME280;12420;42.676;23.262;2022-08-19T08:57:27;94424.19;;;31.22;38.14
12077;BME280;12420;42.676;23.262;2022-08-19T09:00:00;94416.59;;;31.30;38.82
12077;BME280;12420;42.676;23.262;2022-08-19T09:02:35;94440.53;;;31.43;38.71
12077;BME280;12420;42.676;23.262;2022-08-19T09:05:03;94441.00;;;31.62;37.92
12077;BME280;12420;42.676;23.262;2022-08-19T09:07:41;94437.16;;;31.79;38.41
12077;BME280;12420;42.676;23.262;2022-08-19T09:10:19;94415.53;;;31.72;38.28
12077;BME280;12420;42.676;23.262;2022-08-19T09:12:54;94431.50;;;31.81;37.94
12077;BME280;12420;42.676;23.262;2022-08-19T09:15:29;94434.94;;;31.75;38.54
12077;BME280;12420;42.676;23.262;2022-08-19T09:18:02;94428.91;;;31.63;38.75
12077;BME280;12420;42.676;23.262;2022-08-19T09:20:30;94421.94;;;31.70;36.51
12077;BME280;12420;42.676;23.262;2022-08-19T09:22:58;94422.13;;;31.78;34.90
12077;BME280;12420;42.676;23.262;2022-08-19T09:25:26;94408.50;;;31.77;36.96
12077;BME280;12420;42.676;23.262;2022-08-19T09:27:54;94422.31;;;31.87;34.18
12077;BME280;12420;42.676;23.262;2022-08-19T09:30:24;94420.19;;;31.87;33.53
12077;BME280;12420;42.676;23.262;2022-08-19T09:32:52;94399.28;;;31.81;33.04
12077;BME280;12420;42.676;23.262;2022-08-19T09:35:21;94410.16;;;31.86;33.01
12077;BME280;12420;42.676;23.262;2022-08-19T09:37:48;94411.66;;;31.89;33.07
12077;BME280;12420;42.676;23.262;2022-08-19T09:40:20;94414.50;;;31.89;32.94
12077;BME280;12420;42.676;23.262;2022-08-19T09:42:47;94409.97;;;32.08;32.74
12077;BME280;12420;42.676;23.262;2022-08-19T09:45:15;94413.66;;;32.13;32.36
12077;BME280;12420;42.676;23.262;2022-08-19T09:47:43;94398.03;;;32.18;31.49
12077;BME280;12420;42.676;23.262;2022-08-19T09:50:11;94408.28;;;32.27;31.37
12077;BME280;12420;42.676;23.262;2022-08-19T09:52:38;94411.13;;;32.27;31.13
12077;BME280;12420;42.676;23.262;2022-08-19T09:55:09;94407.13;;;32.40;31.30
12077;BME280;12420;42.676;23.262;2022-08-19T09:57:49;94407.31;;;32.49;30.76
12077;BME280;12420;42.676;23.262;2022-08-19T10:00:16;94403.06;;;32.50;29.99
12077;BME280;12420;42.676;23.262;2022-08-19T10:02:42;94394.53;;;32.52;29.58
12077;BME280;12420;42.676;23.262;2022-08-19T10:05:09;94394.03;;;32.63;30.57
12077;BME280;12420;42.676;23.262;2022-08-19T10:07:53;94369.94;;;32.42;29.54
12077;BME280;12420;42.676;23.262;2022-08-19T10:10:24;94395.63;;;32.71;29.23
12077;BME280;12420;42.676;23.262;2022-08-19T10:12:54;94382.19;;;32.79;30.52
12077;BME280;12420;42.676;23.262;2022-08-19T10:15:24;94363.66;;;32.84;29.66
12077;BME280;12420;42.676;23.262;2022-08-19T10:17:51;94365.38;;;33.00;29.47
12077;BME280;12420;42.676;23.262;2022-08-19T10:20:18;94352.59;;;33.03;29.61
12077;BME280;12420;42.676;23.262;2022-08-19T10:22:46;94378.81;;;33.25;27.59
12077;BME280;12420;42.676;23.262;2022-08-19T10:25:13;94360.59;;;33.11;27.92
12077;BME280;12420;42.676;23.262;2022-08-19T10:27:41;94356.91;;;33.04;28.05
12077;BME280;12420;42.676;23.262;2022-08-19T10:30:13;94361.34;;;33.11;27.05
12077;BME280;12420;42.676;23.262;2022-08-19T10:32:40;94367.34;;;33.25;27.81
12077;BME280;12420;42.676;23.262;2022-08-19T10:35:07;94365.53;;;33.06;27.48
12077;BME280;12420;42.676;23.262;2022-08-19T10:37:37;94370.97;;;32.92;27.45
12077;BME280;12420;42.676;23.262;2022-08-19T10:40:06;94361.03;;;32.97;27.95
12077;BME280;12420;42.676;23.262;2022-08-19T10:42:36;94342.44;;;33.00;27.37
12077;BME280;12420;42.676;23.262;2022-08-19T10:45:07;94364.34;;;33.19;27.44
12077;BME280;12420;42.676;23.262;2022-08-19T10:47:36;94360.25;;;33.31;28.53
12077;BME280;12420;42.676;23.262;2022-08-19T10:50:08;94350.91;;;33.28;29.59
12077;BME280;12420;42.676;23.262;2022-08-19T10:52:53;94331.94;;;33.11;30.26
12077;BME280;12420;42.676;23.262;2022-08-19T10:55:24;94309.28;;;32.89;29.18
12077;BME280;12420;42.676;23.262;2022-08-19T10:58:15;94296.00;;;32.69;29.81
12077;BME280;12420;42.676;23.262;2022-08-19T11:00:51;94353.19;;;33.36;29.02
12077;BME280;12420;42.676;23.262;2022-08-19T11:03:26;94357.59;;;33.43;28.67
12077;BME280;12420;42.676;23.262;2022-08-19T11:06:01;94355.41;;;33.41;28.58
12077;BME280;12420;42.676;23.262;2022-08-19T11:08:28;94344.16;;;33.54;28.31
12077;BME280;12420;42.676;23.262;2022-08-19T11:11:01;94349.91;;;33.54;28.77
12077;BME280;12420;42.676;23.262;2022-08-19T11:13:30;94334.00;;;33.46;28.41
12077;BME280;12420;42.676;23.262;2022-08-19T11:16:00;94349.34;;;33.61;27.81
12077;BME280;12420;42.676;23.262;2022-08-19T11:18:31;94348.59;;;33.61;27.43
12077;BME280;12420;42.676;23.262;2022-08-19T11:21:05;94343.47;;;33.55;27.32
12077;BME280;12420;42.676;23.262;2022-08-19T11:23:32;94350.72;;;33.60;27.49
12077;BME280;12420;42.676;23.262;2022-08-19T11:25:59;94337.25;;;33.69;28.11
12077;BME280;12420;42.676;23.262;2022-08-19T11:28:26;94338.41;;;33.98;28.36
12077;BME280;12420;42.676;23.262;2022-08-19T11:30:53;94342.06;;;34.03;27.54
12077;BME280;12420;42.676;23.262;2022-08-19T11:33:20;94345.59;;;33.99;27.87
12077;BME280;12420;42.676;23.262;2022-08-19T11:35:48;94319.03;;;33.99;27.85
12077;BME280;12420;42.676;23.262;2022-08-19T11:38:15;94312.09;;;34.12;27.74
12077;BME280;12420;42.676;23.262;2022-08-19T11:40:43;94320.00;;;34.13;27.23
12077;BME280;12420;42.676;23.262;2022-08-19T11:43:10;94327.91;;;34.15;27.17
12077;BME280;12420;42.676;23.262;2022-08-19T11:45:42;94324.94;;;34.09;27.47
12077;BME280;12420;42.676;23.262;2022-08-19T11:48:09;94321.41;;;34.12;27.30
12077;BME280;12420;42.676;23.262;2022-08-19T11:50:36;94325.69;;;34.11;27.67
12077;BME280;12420;42.676;23.262;2022-08-19T11:53:12;94301.16;;;34.04;27.75
12077;BME280;12420;42.676;23.262;2022-08-19T11:55:39;94320.34;;;34.38;27.55
12077;BME280;12420;42.676;23.262;2022-08-19T11:58:09;94325.44;;;34.46;27.65
12077;BME280;12420;42.676;23.262;2022-08-19T12:00:37;94310.25;;;34.35;27.86
12077;BME280;12420;42.676;23.262;2022-08-19T12:03:04;94301.72;;;34.43;27.20
12077;BME280;12420;42.676;23.262;2022-08-19T12:05:31;94304.50;;;34.35;27.23
12077;BME280;12420;42.676;23.262;2022-08-19T12:07:58;94303.75;;;34.32;27.21
12077;BME280;12420;42.676;23.262;2022-08-19T12:10:26;94287.31;;;34.41;27.30
12077;BME280;12420;42.676;23.262;2022-08-19T12:12:53;94288.88;;;34.52;26.42
12077;BME280;12420;42.676;23.262;2022-08-19T12:15:21;94285.94;;;34.46;27.59
12077;BME280;12420;42.676;23.262;2022-08-19T12:17:51;94262.19;;;34.42;27.42
12077;BME280;12420;42.676;23.262;2022-08-19T12:20:23;94279.66;;;34.58;26.87
12077;BME280;12420;42.676;23.262;2022-08-19T12:22:51;94287.56;;;34.60;26.71
12077;BME280;12420;42.676;23.262;2022-08-19T12:25:18;94276.22;;;34.72;26.84
12077;BME280;12420;42.676;23.262;2022-08-19T12:27:47;94272.00;;;34.81;26.92
12077;BME280;12420;42.676;23.262;2022-08-19T12:30:15;94258.31;;;34.79;26.35
12077;BME280;12420;42.676;23.262;2022-08-19T12:32:41;94252.34;;;34.59;26.70
12077;BME280;12420;42.676;23.262;2022-08-19T12:35:09;94256.84;;;34.76;26.76
12077;BME280;12420;42.676;23.262;2022-08-19T12:37:39;94271.25;;;34.78;26.95
12077;BME280;12420;42.676;23.262;2022-08-19T12:40:08;94269.88;;;34.86;26.96
12077;BME280;12420;42.676;23.262;2022-08-19T12:42:37;94269.88;;;34.86;26.59
12077;BME280;12420;42.676;23.262;2022-08-19T12:45:10;94258.41;;;34.88;26.43
12077;BME280;12420;42.676;23.262;2022-08-19T12:47:37;94244.03;;;34.88;26.33
12077;BME280;12420;42.676;23.262;2022-08-19T12:50:05;94250.63;;;35.00;26.18
12077;BME280;12420;42.676;23.262;2022-08-19T12:52:35;94226.16;;;34.97;26.12
12077;BME280;12420;42.676;23.262;2022-08-19T12:55:04;94255.22;;;35.28;26.78
12077;BME280;12420;42.676;23.262;2022-08-19T12:57:32;94250.94;;;35.33;26.13
12077;BME280;12420;42.676;23.262;2022-08-19T13:00:06;94243.00;;;35.30;26.33